Time;durP1;ratioP1;P1;durP2;ratioP2;P2;SDS_P1;SDS_P2;PMS_P1;PMS_P2;Temp;Humidity;BMP_temperature;BMP_pressure;BME280_temperature;BME280_humidity;BME280_pressure;Samples;Min_cycle;Max_cycle;Signal;HPM_P1;HPM_P2
2022/09/26 00:00:56;;;;;;;;;;;;;;;;;;5063373;28;19916;-61
2022/09/26 00:03:21;;;;;;;;;;;;;;;;;;5066958;28;20395;-61
2022/09/26 00:05:46;;;;;;;;;;;;;;;;;;5069285;28;19913;-60
2022/09/26 00:08:11;;;;;;;;;;;;;;;;;;5068353;28;20380;-61
2022/09/26 00:10:36;;;;;;;;;;;;;;;;;;5042863;28;19919;-61
2022/09/26 00:13:01;;;;;;;;;;;;;;;;;;5061003;28;19991;-61
2022/09/26 00:15:27;;;;;;;;;;;;;;;;;;5062903;28;19975;-61
2022/09/26 00:17:52;;;;;;;;;;;;;;;;;;5067813;28;20001;-60
2022/09/26 00:20:17;;;;;;;;;;;;;;;;;;5081437;28;20381;-61
2022/09/26 00:22:42;;;;;;;;;;;;;;;;;;5088009;28;20318;-61
2022/09/26 00:25:07;;;;;;;;;;;;;;;;;;5083399;28;19930;-61
2022/09/26 00:27:32;;;;;;;;;;;;;;;;;;5086471;28;20376;-60
2022/09/26 00:29:57;;;;;;;;;;;;;;;;;;5080462;28;20299;-61
2022/09/26 00:32:23;;;;;;;;;;;;;;;;;;5078050;28;19959;-60
2022/09/26 00:34:48;;;;;;;;;;;;;;;;;;5088540;28;20356;-61
2022/09/26 00:37:13;;;;;;;;;;;;;;;;;;5085257;28;20418;-60
2022/09/26 00:39:38;;;;;;;;;;;;;;;;;;5079856;28;19958;-61
2022/09/26 00:42:03;;;;;;;;;;;;;;;;;;5084934;28;20359;-60
2022/09/26 00:44:28;;;;;;;;;;;;;;;;;;5081159;28;19927;-60
2022/09/26 00:46:53;;;;;;;;;;;;;;;;;;5075988;28;19916;-60
2022/09/26 00:49:19;;;;;;;;;;;;;;;;;;5079525;28;20368;-61
2022/09/26 00:51:44;;;;;;;;;;;;;;;;;;5068127;28;19920;-60
2022/09/26 00:54:10;;;;;;;;;;;;;;;;;;5059086;28;19959;-60
2022/09/26 00:56:35;;;;;;;;;;;;;;;;;;5076798;28;19920;-60
2022/09/26 00:59:00;;;;;;;;;;;;;;;;;;5078332;28;20272;-60
2022/09/26 01:01:25;;;;;;;;;;;;;;;;;;5083111;28;19912;-60
2022/09/26 01:03:50;;;;;;;;;;;;;;;;;;5089050;28;19962;-60
2022/09/26 01:06:16;;;;;;;;;;;;;;;;;;5081998;28;19913;-60
2022/09/26 01:08:41;;;;;;;;;;;;;;;;;;5072991;28;19965;-59
2022/09/26 01:11:06;;;;;;;;;;;;;;;;;;5084698;28;19912;-60
2022/09/26 01:13:31;;;;;;;;;;;;;;;;;;5070288;28;19917;-61
2022/09/26 01:15:56;;;;;;;;;;;;;;;;;;5081387;28;20364;-61
2022/09/26 01:18:21;;;;;;;;;;;;;;;;;;5079694;28;20392;-60
2022/09/26 01:20:47;;;;;;;;;;;;;;;;;;5081053;28;19948;-60
2022/09/26 01:23:12;;;;;;;;;;;;;;;;;;5086958;28;19943;-60
2022/09/26 01:25:37;;;;;;;;;;;;;;;;;;5084880;28;19913;-60
2022/09/26 01:28:02;;;;;;;;;;;;;;;;;;5071727;28;19923;-59
2022/09/26 01:30:27;;;;;;;;;;;;;;;;;;5068238;28;19974;-60
2022/09/26 01:32:52;;;;;;;;;;;;;;;;;;5063317;28;20375;-59
2022/09/26 01:35:18;;;;;;;;;;;;;;;;;;5087679;28;19912;-60
2022/09/26 01:37:43;;;;;;;;;;;;;;;;;;5089150;28;20334;-60
2022/09/26 01:40:09;;;;;;;;;;;;;;;;;;5081599;28;19917;-59
2022/09/26 01:42:34;;;;;;;;;;;;;;;;;;5079012;28;20384;-60
2022/09/26 01:44:59;;;;;;;;;;;;;;;;;;5087844;28;19916;-60
2022/09/26 01:47:24;;;;;;;;;;;;;;;;;;5084027;28;19925;-60
2022/09/26 01:49:49;;;;;;;;;;;;;;;;;;5077692;28;20395;-60
2022/09/26 01:52:14;;;;;;;;;;;;;;;;;;5065906;28;20322;-60
2022/09/26 01:54:39;;;;;;;;;;;;;;;;;;5073968;28;19995;-60
2022/09/26 01:57:05;;;;;;;;;;;;;;;;;;5089416;28;19941;-60
2022/09/26 01:59:30;;;;;;;;;;;;;;;;;;5084894;28;20257;-60
2022/09/26 02:01:55;;;;;;;;;;;;;;;;;;5088189;28;19908;-60
2022/09/26 02:04:20;;;;;;;;;;;;;;;;;;5060422;28;19920;-59
2022/09/26 02:06:46;;;;;;;;;;;;;;;;;;5067216;28;19912;-60
2022/09/26 02:09:11;;;;;;;;;;;;;;;;;;5078429;28;19915;-60
2022/09/26 02:11:36;;;;;;;;;;;;;;;;;;5078211;28;20394;-60
2022/09/26 02:14:04;;;;;;;;;;;;;;;;;;5078673;28;19912;-60
2022/09/26 02:16:29;;;;;;;;;;;;;;;;;;5084838;28;19991;-60
2022/09/26 02:18:54;;;;;;;;;;;;;;;;;;5077228;28;20011;-59
2022/09/26 02:21:20;;;;;;;;;;;;;;;;;;5076633;28;19919;-60
2022/09/26 02:23:45;;;;;;;;;;;;;;;;;;5084999;28;19916;-60
2022/09/26 02:26:10;;;;;;;;;;;;;;;;;;5076509;28;19978;-59
2022/09/26 02:28:35;;;;;;;;;;;;;;;;;;5080472;28;19916;-60
2022/09/26 02:31:00;;;;;;;;;;;;;;;;;;5083771;28;19916;-60
2022/09/26 02:33:25;;;;;;;;;;;;;;;;;;5083691;28;19912;-60
2022/09/26 02:35:53;;;;;;;;;;;;;;;;;;5077515;28;20385;-60
2022/09/26 02:38:19;;;;;;;;;;;;;;;;;;5074259;28;19931;-60
2022/09/26 02:40:44;;;;;;;;;;;;;;;;;;5090785;28;19912;-60
2022/09/26 02:43:10;;;;;;;;;;;;;;;;;;5079463;28;19912;-60
2022/09/26 02:45:35;;;;;;;;;;;;;;;;;;5079638;28;19912;-60
2022/09/26 02:48:00;;;;;;;;;;;;;;;;;;5084753;28;20275;-60
2022/09/26 02:50:25;;;;;;;;;;;;;;;;;;5078969;28;20387;-60
2022/09/26 02:52:50;;;;;;;;;;;;;;;;;;5069420;28;19924;-61
2022/09/26 02:55:15;;;;;;;;;;;;;;;;;;5084374;28;20287;-60
2022/09/26 02:57:41;;;;;;;;;;;;;;;;;;5070580;28;20413;-60
2022/09/26 03:00:07;;;;;;;;;;;;;;;;;;5090894;28;19918;-60
2022/09/26 03:02:32;;;;;;;;;;;;;;;;;;5087674;28;19912;-61
2022/09/26 03:04:57;;;;;;;;;;;;;;;;;;5083644;28;19919;-60
2022/09/26 03:07:23;;;;;;;;;;;;;;;;;;5078508;28;19916;-60
2022/09/26 03:09:48;;;;;;;;;;;;;;;;;;5065166;28;20288;-61
2022/09/26 03:12:13;;;;;;;;;;;;;;;;;;5083055;28;19913;-60
2022/09/26 03:14:38;;;;;;;;;;;;;;;;;;5077000;28;19923;-61
2022/09/26 03:17:03;;;;;;;;;;;;;;;;;;5081503;28;20280;-59
2022/09/26 03:19:29;;;;;;;;;;;;;;;;;;5071332;28;20333;-61
2022/09/26 03:21:54;;;;;;;;;;;;;;;;;;5087768;28;20359;-61
2022/09/26 03:24:19;;;;;;;;;;;;;;;;;;5079514;28;19920;-61
2022/09/26 03:26:45;;;;;;;;;;;;;;;;;;5080265;28;19920;-60
2022/09/26 03:29:10;;;;;;;;;;;;;;;;;;5077324;28;19920;-61
2022/09/26 03:31:35;;;;;;;;;;;;;;;;;;5080499;28;19913;-60
2022/09/26 03:34:01;;;;;;;;;;;;;;;;;;5080044;28;19914;-60
2022/09/26 03:36:26;;;;;;;;;;;;;;;;;;5076356;28;19920;-60
2022/09/26 03:38:51;;;;;;;;;;;;;;;;;;5082560;28;19920;-60
2022/09/26 03:41:16;;;;;;;;;;;;;;;;;;5087500;28;19955;-61
2022/09/26 03:43:42;;;;;;;;;;;;;;;;;;5078419;28;19913;-60
2022/09/26 03:46:07;;;;;;;;;;;;;;;;;;5089446;28;19918;-60
2022/09/26 03:48:32;;;;;;;;;;;;;;;;;;5063934;28;19920;-60
2022/09/26 03:50:57;;;;;;;;;;;;;;;;;;5077257;28;19913;-61
2022/09/26 03:53:23;;;;;;;;;;;;;;;;;;5077710;28;19908;-60
2022/09/26 03:55:48;;;;;;;;;;;;;;;;;;5070705;28;20015;-61
2022/09/26 03:58:14;;;;;;;;;;;;;;;;;;5074404;28;19979;-61
2022/09/26 04:00:39;;;;;;;;;;;;;;;;;;5086858;28;19969;-60
2022/09/26 04:03:04;;;;;;;;;;;;;;;;;;5089891;28;19916;-61
2022/09/26 04:05:29;;;;;;;;;;;;;;;;;;5067057;28;20386;-60
2022/09/26 04:07:54;;;;;;;;;;;;;;;;;;5078976;28;19912;-60
2022/09/26 04:10:20;;;;;;;;;;;;;;;;;;5071725;28;20483;-60
2022/09/26 04:12:45;;;;;;;;;;;;;;;;;;5055078;28;19913;-60
2022/09/26 04:15:10;;;;;;;;;;;;;;;;;;5082544;28;19965;-61
2022/09/26 04:17:35;;;;;;;;;;;;;;;;;;5079446;28;19970;-60
2022/09/26 04:20:00;;;;;;;;;;;;;;;;;;5078701;28;19928;-60
2022/09/26 04:22:26;;;;;;;;;;;;;;;;;;5081602;28;19983;-60
2022/09/26 04:24:52;;;;;;;;;;;;;;;;;;5084670;28;19912;-61
2022/09/26 04:27:17;;;;;;;;;;;;;;;;;;5078242;28;20003;-61
2022/09/26 04:29:43;;;;;;;;;;;;;;;;;;5083622;28;19912;-61
2022/09/26 04:32:09;;;;;;;;;;;;;;;;;;5082893;28;19919;-60
2022/09/26 04:34:34;;;;;;;;;;;;;;;;;;5080954;28;19919;-62
2022/09/26 04:36:59;;;;;;;;;;;;;;;;;;5084116;28;19912;-61
2022/09/26 04:39:24;;;;;;;;;;;;;;;;;;5071502;28;19919;-60
2022/09/26 04:41:51;;;;;;;;;;;;;;;;;;5094046;28;19923;-61
2022/09/26 04:44:16;;;;;;;;;;;;;;;;;;5085832;28;19913;-61
2022/09/26 04:46:41;;;;;;;;;;;;;;;;;;5081025;28;19927;-61
2022/09/26 04:49:06;;;;;;;;;;;;;;;;;;5088508;28;19944;-61
2022/09/26 04:51:31;;;;;;;;;;;;;;;;;;5068889;28;19913;-61
2022/09/26 04:53:57;;;;;;;;;;;;;;;;;;5082135;28;20344;-61
2022/09/26 04:56:22;;;;;;;;;;;;;;;;;;5078714;28;20392;-61
2022/09/26 04:58:47;;;;;;;;;;;;;;;;;;5065249;28;19966;-62
2022/09/26 05:01:12;;;;;;;;;;;;;;;;;;5082516;28;19912;-62
2022/09/26 05:03:37;;;;;;;;;;;;;;;;;;5080903;28;19912;-62
2022/09/26 05:06:04;;;;;;;;;;;;;;;;;;5085362;28;19912;-66
2022/09/26 05:08:29;;;;;;;;;;;;;;;;;;5073960;28;19920;-66
2022/09/26 05:10:55;;;;;;;;;;;;;;;;;;5087973;28;19916;-68
2022/09/26 05:13:20;;;;;;;;;;;;;;;;;;5083749;28;20438;-67
2022/09/26 05:15:46;;;;;;;;;;;;;;;;;;5072010;28;20592;-68
2022/09/26 05:18:12;;;;;;;;;;;;;;;;;;5072654;28;19927;-68
2022/09/26 05:20:37;;;;;;;;;;;;;;;;;;5064531;28;19917;-68
2022/09/26 05:23:02;;;;;;;;;;;;;;;;;;5055456;28;19912;-68
2022/09/26 05:28:11;;;;;;;;;;;;;;;;;;5060398;28;19924;-68
2022/09/26 05:30:36;;;;;;;;;;;;;;;;;;5049322;28;20364;-68
2022/09/26 05:33:01;;;;;;;;;;;;;;;;;;5071817;28;20376;-68
2022/09/26 05:35:26;;;;;;;;;;;;;;;;;;5050726;28;20527;-67
2022/09/26 05:37:51;;;;;;;;;;;;;;;;;;5060398;28;19916;-67
2022/09/26 05:43:00;;;;;;;;;;;;;;;;;;5061850;28;19923;-67
2022/09/26 05:45:26;;;;;;;;;;;;;;;;;;5047264;28;19913;-68
2022/09/26 05:47:51;;;;;;;;;;;;;;;;;;5039327;28;20384;-66
2022/09/26 05:50:16;;;;;;;;;;;;;;;;;;5046887;28;19999;-67
2022/09/26 05:52:41;;;;;;;;;;;;;;;;;;5058933;28;19921;-67
2022/09/26 05:55:06;;;;;;;;;;;;;;;;;;5038806;28;20323;-67
2022/09/26 05:57:31;;;;;;;;;;;;;;;;;;5057993;28;20280;-67
2022/09/26 05:59:57;;;;;;;;;;;;;;;;;;5060211;28;19913;-67
2022/09/26 06:02:22;;;;;;;;;;;;;;;;;;5062641;28;19908;-67
2022/09/26 06:04:48;;;;;;;;;;;;;;;;;;5068316;28;19913;-67
2022/09/26 06:07:13;;;;;;;;;;;;;;;;;;5068761;28;19913;-68
2022/09/26 06:09:38;;;;;;;;;;;;;;;;;;5047643;28;19908;-68
2022/09/26 06:12:03;;;;;;;;;;;;;;;;;;5051757;28;19921;-68
2022/09/26 06:14:28;;;;;;;;;;;;;;;;;;5044314;28;19913;-67
2022/09/26 06:16:53;;;;;;;;;;;;;;;;;;5050890;28;19909;-67
2022/09/26 06:19:19;;;;;;;;;;;;;;;;;;5057069;28;19981;-67
2022/09/26 06:21:44;;;;;;;;;;;;;;;;;;5057457;28;19919;-67
2022/09/26 06:24:09;;;;;;;;;;;;;;;;;;5052427;28;20363;-68
2022/09/26 06:26:34;;;;;;;;;;;;;;;;;;5052644;28;19916;-68
2022/09/26 06:28:59;;;;;;;;;;;;;;;;;;5051554;28;19915;-68
2022/09/26 06:31:25;;;;;;;;;;;;;;;;;;5053344;28;19912;-67
2022/09/26 06:33:52;;;;;;;;;;;;;;;;;;5080687;28;19973;-67
2022/09/26 06:36:17;;;;;;;;;;;;;;;;;;5071218;28;19944;-68
2022/09/26 06:38:42;;;;;;;;;;;;;;;;;;5072766;28;19954;-69
2022/09/26 06:41:07;;;;;;;;;;;;;;;;;;5064621;28;19921;-68
2022/09/26 06:43:32;;;;;;;;;;;;;;;;;;5057828;28;20007;-68
2022/09/26 06:45:57;;;;;;;;;;;;;;;;;;5054636;28;20319;-69
2022/09/26 06:48:24;;;;;;;;;;;;;;;;;;5047412;28;19975;-69
2022/09/26 06:50:49;;;;;;;;;;;;;;;;;;5068998;28;19916;-69
2022/09/26 06:53:14;;;;;;;;;;;;;;;;;;5076006;28;20447;-69
2022/09/26 06:55:39;;;;;;;;;;;;;;;;;;5069536;28;19919;-69
2022/09/26 06:58:04;;;;;;;;;;;;;;;;;;5053081;28;19970;-68
2022/09/26 07:00:29;;;;;;;;;;;;;;;;;;5071197;28;19908;-68
2022/09/26 07:02:55;;;;;;;;;;;;;;;;;;5059647;28;20292;-69
2022/09/26 07:05:20;;;;;;;;;;;;;;;;;;5049002;28;20426;-69
2022/09/26 07:07:47;;;;;;;;;;;;;;;;;;5054595;28;20288;-69
2022/09/26 07:10:14;;;;;;;;;;;;;;;;;;5054425;28;19909;-69
2022/09/26 07:12:42;;;;;;;;;;;;;;;;;;5071727;28;19947;-69
2022/09/26 07:15:08;;;;;;;;;;;;;;;;;;5055969;28;19970;-68
2022/09/26 07:17:33;;;;;;;;;;;;;;;;;;5047774;28;20385;-68
2022/09/26 07:20:00;;;;;;;;;;;;;;;;;;5080744;28;20466;-69
2022/09/26 07:22:25;;;;;;;;;;;;;;;;;;5072770;28;20353;-68
2022/09/26 07:24:51;;;;;;;;;;;;;;;;;;5091078;28;19908;-68
2022/09/26 07:27:16;;;;;;;;;;;;;;;;;;5082729;28;20331;-69
2022/09/26 07:29:42;;;;;;;;;;;;;;;;;;5092064;28;19908;-68
2022/09/26 07:32:07;;;;;;;;;;;;;;;;;;5077070;28;19916;-68
2022/09/26 07:34:32;;;;;;;;;;;;;;;;;;5079597;28;20430;-68
2022/09/26 07:36:58;;;;;;;;;;;;;;;;;;5091744;28;19915;-68
2022/09/26 07:39:23;;;;;;;;;;;;;;;;;;5082223;28;19966;-69
2022/09/26 07:41:49;;;;;;;;;;;;;;;;;;5074335;28;19916;-70
2022/09/26 07:44:14;;;;;;;;;;;;;;;;;;5083009;28;21275;-69
2022/09/26 07:52:07;;;;;;;;;;;;;;;;;;5076464;28;20312;-69
2022/09/26 07:54:34;;;;;;;;;;;;;;;;;;5084414;28;19916;-69
2022/09/26 07:56:59;;;;;;;;;;;;;;;;;;5071408;28;19916;-69
2022/09/26 07:59:24;;;;;;;;;;;;;;;;;;5063909;28;20291;-69
2022/09/26 08:01:50;;;;;;;;;;;;;;;;;;5054181;28;19908;-69
2022/09/26 08:04:17;;;;;;;;;;;;;;;;;;5073116;28;19963;-69
2022/09/26 08:06:42;;;;;;;;;;;;;;;;;;5079443;28;20002;-69
2022/09/26 08:09:08;;;;;;;;;;;;;;;;;;5078268;28;19999;-69
2022/09/26 08:11:33;;;;;;;;;;;;;;;;;;5072085;28;19920;-69
2022/09/26 08:13:59;;;;;;;;;;;;;;;;;;5064871;28;19912;-68
2022/09/26 08:16:24;;;;;;;;;;;;;;;;;;5077707;28;19913;-68
2022/09/26 08:18:49;;;;;;;;;;;;;;;;;;5070256;28;19975;-69
2022/09/26 08:21:14;;;;;;;;;;;;;;;;;;5038957;28;20035;-68
2022/09/26 08:23:40;;;;;;;;;;;;;;;;;;5063779;28;20361;-68
2022/09/26 08:26:08;;;;;;;;;;;;;;;;;;5061356;28;19912;-69
2022/09/26 08:28:33;;;;;;;;;;;;;;;;;;5037662;28;19913;-68
2022/09/26 08:31:03;;;;;;;;;;;;;;;;;;5055544;28;19935;-68
2022/09/26 08:33:28;;;;;;;;;;;;;;;;;;5058275;28;19998;-69
2022/09/26 08:35:54;;;;;;;;;;;;;;;;;;5067336;28;19948;-69
2022/09/26 08:38:19;;;;;;;;;;;;;;;;;;5055319;28;19920;-69
2022/09/26 08:40:44;;;;;;;;;;;;;;;;;;5068676;28;19958;-69
2022/09/26 08:43:09;;;;;;;;;;;;;;;;;;5037685;28;19967;-69
2022/09/26 08:48:19;;;;;;;;;;;;;;;;;;5057680;28;19919;-69
2022/09/26 08:50:44;;;;;;;;;;;;;;;;;;5051331;28;19913;-69
2022/09/26 08:53:09;;;;;;;;;;;;;;;;;;5061418;28;19912;-69
2022/09/26 08:55:34;;;;;;;;;;;;;;;;;;5049877;28;20361;-68
2022/09/26 08:58:00;;;;;;;;;;;;;;;;;;5060427;28;20375;-69
2022/09/26 09:00:25;;;;;;;;;;;;;;;;;;5054642;28;19959;-69
2022/09/26 09:02:50;;;;;;;;;;;;;;;;;;5071874;28;19912;-69
2022/09/26 09:05:15;;;;;;;;;;;;;;;;;;5071086;28;20426;-69
2022/09/26 09:07:40;;;;;;;;;;;;;;;;;;5071840;28;19999;-69
2022/09/26 09:10:05;;;;;;;;;;;;;;;;;;5060913;28;19916;-69
2022/09/26 09:12:30;;;;;;;;;;;;;;;;;;5058821;28;19917;-68
2022/09/26 09:14:56;;;;;;;;;;;;;;;;;;5054038;28;19962;-69
2022/09/26 09:17:21;;;;;;;;;;;;;;;;;;5041006;28;20148;-69
2022/09/26 09:19:47;;;;;;;;;;;;;;;;;;5043997;28;19921;-68
2022/09/26 09:22:12;;;;;;;;;;;;;;;;;;5059757;28;19912;-68
2022/09/26 09:24:37;;;;;;;;;;;;;;;;;;5065595;28;20283;-68
2022/09/26 09:27:03;;;;;;;;;;;;;;;;;;5068604;28;20383;-68
2022/09/26 09:29:28;;;;;;;;;;;;;;;;;;5054455;28;19920;-68
2022/09/26 09:31:53;;;;;;;;;;;;;;;;;;5051861;28;20381;-68
2022/09/26 09:34:18;;;;;;;;;;;;;;;;;;5054380;28;20440;-69
2022/09/26 09:36:43;;;;;;;;;;;;;;;;;;5053534;28;19913;-68
2022/09/26 09:39:08;;;;;;;;;;;;;;;;;;5060890;28;19969;-69
2022/09/26 09:41:33;;;;;;;;;;;;;;;;;;5073217;28;19958;-68
2022/09/26 09:43:58;;;;;;;;;;;;;;;;;;5073787;28;19908;-69
2022/09/26 09:46:27;;;;;;;;;;;;;;;;;;5074009;28;19954;-68
2022/09/26 09:48:52;;;;;;;;;;;;;;;;;;5050539;28;19991;-68
2022/09/26 09:51:17;;;;;;;;;;;;;;;;;;5050451;28;20002;-69
2022/09/26 09:53:43;;;;;;;;;;;;;;;;;;5049176;28;19920;-68
2022/09/26 09:56:08;;;;;;;;;;;;;;;;;;5068833;28;20176;-70
2022/09/26 09:58:33;;;;;;;;;;;;;;;;;;5085345;28;20019;-69
2022/09/26 10:00:58;;;;;;;;;;;;;;;;;;5065090;28;19912;-69
2022/09/26 10:03:23;;;;;;;;;;;;;;;;;;5055912;28;20352;-69
2022/09/26 10:05:52;;;;;;;;;;;;;;;;;;5051793;28;20399;-69
2022/09/26 10:08:17;;;;;;;;;;;;;;;;;;5051553;28;19920;-69
2022/09/26 10:10:43;;;;;;;;;;;;;;;;;;5069048;28;19912;-69
2022/09/26 10:13:09;;;;;;;;;;;;;;;;;;5054691;28;19913;-69
2022/09/26 10:15:35;;;;;;;;;;;;;;;;;;5073140;28;19915;-68
2022/09/26 10:18:00;;;;;;;;;;;;;;;;;;5051441;28;19920;-68
2022/09/26 10:20:26;;;;;;;;;;;;;;;;;;5057400;28;19913;-68
2022/09/26 10:22:51;;;;;;;;;;;;;;;;;;5053954;28;19909;-68
2022/09/26 10:25:16;;;;;;;;;;;;;;;;;;5055596;28;19912;-68
2022/09/26 10:27:41;;;;;;;;;;;;;;;;;;5053671;28;19963;-69
2022/09/26 10:30:08;;;;;;;;;;;;;;;;;;5052673;28;19913;-69
2022/09/26 10:32:33;;;;;;;;;;;;;;;;;;5054537;28;19988;-69
2022/09/26 10:34:59;;;;;;;;;;;;;;;;;;5059202;28;19996;-69
2022/09/26 10:37:24;;;;;;;;;;;;;;;;;;5053365;28;19971;-68
2022/09/26 10:42:34;;;;;;;;;;;;;;;;;;5068057;28;20030;-68
2022/09/26 10:44:59;;;;;;;;;;;;;;;;;;5051506;28;19909;-69
2022/09/26 10:47:24;;;;;;;;;;;;;;;;;;5050750;28;20312;-68
2022/09/26 10:49:53;;;;;;;;;;;;;;;;;;5063881;28;19932;-69
2022/09/26 10:52:18;;;;;;;;;;;;;;;;;;5055000;28;19944;-68
2022/09/26 10:54:44;;;;;;;;;;;;;;;;;;5055083;28;19913;-69
2022/09/26 10:57:09;;;;;;;;;;;;;;;;;;5064281;28;19912;-68
2022/09/26 10:59:35;;;;;;;;;;;;;;;;;;5057864;28;19920;-69
2022/09/26 11:02:02;;;;;;;;;;;;;;;;;;5065526;28;19959;-69
2022/09/26 11:07:11;;;;;;;;;;;;;;;;;;5072741;28;19962;-69
2022/09/26 11:09:37;;;;;;;;;;;;;;;;;;5064708;28;19921;-68
2022/09/26 11:12:02;;;;;;;;;;;;;;;;;;5059494;28;19948;-69
2022/09/26 11:14:28;;;;;;;;;;;;;;;;;;5071211;28;19912;-69
2022/09/26 11:16:53;;;;;;;;;;;;;;;;;;5060568;28;19922;-70
2022/09/26 11:19:19;;;;;;;;;;;;;;;;;;5068521;28;19921;-69
2022/09/26 11:21:44;;;;;;;;;;;;;;;;;;5053967;28;19919;-70
2022/09/26 11:24:10;;;;;;;;;;;;;;;;;;5052951;28;19920;-70
2022/09/26 11:26:35;;;;;;;;;;;;;;;;;;5062258;28;19946;-69
2022/09/26 11:29:02;;;;;;;;;;;;;;;;;;5056653;28;20349;-69
2022/09/26 11:31:27;;;;;;;;;;;;;;;;;;5069308;28;19908;-69
2022/09/26 11:33:53;;;;;;;;;;;;;;;;;;5071175;28;20317;-68
2022/09/26 11:36:18;;;;;;;;;;;;;;;;;;5069731;28;20603;-69
2022/09/26 11:38:45;;;;;;;;;;;;;;;;;;5058032;28;19917;-69
2022/09/26 11:41:10;;;;;;;;;;;;;;;;;;5065576;28;20654;-70
2022/09/26 11:43:35;;;;;;;;;;;;;;;;;;5070784;28;19993;-71
2022/09/26 11:46:03;;;;;;;;;;;;;;;;;;5059343;28;19916;-70
2022/09/26 11:48:28;;;;;;;;;;;;;;;;;;5067547;28;19927;-67
2022/09/26 11:50:53;;;;;;;;;;;;;;;;;;5064697;28;20262;-69
2022/09/26 11:53:18;;;;;;;;;;;;;;;;;;5073762;28;20324;-69
2022/09/26 11:55:43;;;;;;;;;;;;;;;;;;5073519;28;20633;-69
2022/09/26 11:58:08;;;;;;;;;;;;;;;;;;5060231;28;19920;-69
2022/09/26 12:00:34;;;;;;;;;;;;;;;;;;5066377;28;20276;-69
2022/09/26 12:02:59;;;;;;;;;;;;;;;;;;5067482;28;19913;-69
2022/09/26 12:05:24;;;;;;;;;;;;;;;;;;5074217;28;20003;-69
2022/09/26 12:07:49;;;;;;;;;;;;;;;;;;5074967;28;19923;-69
2022/09/26 12:10:14;;;;;;;;;;;;;;;;;;5070265;28;19917;-68
2022/09/26 12:12:40;;;;;;;;;;;;;;;;;;5069654;28;19912;-70
2022/09/26 12:15:07;;;;;;;;;;;;;;;;;;5058497;28;19913;-67
2022/09/26 12:17:35;;;;;;;;;;;;;;;;;;5056635;28;19920;-69
2022/09/26 12:20:00;;;;;;;;;;;;;;;;;;5075576;28;19916;-69
2022/09/26 12:22:28;;;;;;;;;;;;;;;;;;5090101;28;20391;-69
2022/09/26 12:24:54;;;;;;;;;;;;;;;;;;5092503;28;19947;-69
2022/09/26 12:27:20;;;;;;;;;;;;;;;;;;5072949;28;19919;-69
2022/09/26 12:29:45;;;;;;;;;;;;;;;;;;5059659;28;19917;-66
2022/09/26 12:32:13;;;;;;;;;;;;;;;;;;5090633;28;19912;-69
2022/09/26 12:34:38;;;;;;;;;;;;;;;;;;5086797;28;19959;-69
2022/09/26 12:37:03;;;;;;;;;;;;;;;;;;5074917;28;19944;-69
2022/09/26 12:39:28;;;;;;;;;;;;;;;;;;5093795;28;19912;-69
2022/09/26 12:41:54;;;;;;;;;;;;;;;;;;5092401;28;19912;-69
2022/09/26 12:44:21;;;;;;;;;;;;;;;;;;5091752;28;19945;-68
2022/09/26 12:46:46;;;;;;;;;;;;;;;;;;5066436;28;19919;-68
2022/09/26 12:49:11;;;;;;;;;;;;;;;;;;5080999;28;19913;-68
2022/09/26 12:51:36;;;;;;;;;;;;;;;;;;5074538;28;20008;-68
2022/09/26 12:54:01;;;;;;;;;;;;;;;;;;5094499;28;19965;-68
2022/09/26 12:56:29;;;;;;;;;;;;;;;;;;5087192;28;20372;-69
2022/09/26 12:58:54;;;;;;;;;;;;;;;;;;5088197;28;19912;-68
2022/09/26 13:01:21;;;;;;;;;;;;;;;;;;5091950;28;19999;-68
2022/09/26 13:03:47;;;;;;;;;;;;;;;;;;5075271;28;20010;-69
2022/09/26 13:06:12;;;;;;;;;;;;;;;;;;5088193;28;20415;-68
2022/09/26 13:08:37;;;;;;;;;;;;;;;;;;5092102;28;20379;-68
2022/09/26 13:11:02;;;;;;;;;;;;;;;;;;5071560;28;19916;-70
2022/09/26 13:13:27;;;;;;;;;;;;;;;;;;5076258;28;20357;-70
2022/09/26 13:15:53;;;;;;;;;;;;;;;;;;5084924;28;20368;-71
2022/09/26 13:18:19;;;;;;;;;;;;;;;;;;5057082;28;19970;-69
2022/09/26 13:20:44;;;;;;;;;;;;;;;;;;5071987;28;19909;-68
2022/09/26 13:23:09;;;;;;;;;;;;;;;;;;5063677;28;19916;-65
2022/09/26 13:25:35;;;;;;;;;;;;;;;;;;5047053;28;19969;-69
2022/09/26 13:28:08;;;;;;;;;;;;;;;;;;5058093;28;19913;-70
2022/09/26 13:30:34;;;;;;;;;;;;;;;;;;5057347;28;20011;-69
2022/09/26 13:32:59;;;;;;;;;;;;;;;;;;5073954;28;20401;-69
2022/09/26 13:35:24;;;;;;;;;;;;;;;;;;5067697;28;20071;-69
2022/09/26 13:37:51;;;;;;;;;;;;;;;;;;5064233;28;19935;-69
2022/09/26 13:40:16;;;;;;;;;;;;;;;;;;5071955;28;20321;-69
2022/09/26 13:42:41;;;;;;;;;;;;;;;;;;5068570;28;19912;-70
2022/09/26 13:45:07;;;;;;;;;;;;;;;;;;5062621;28;19917;-70
2022/09/26 13:47:32;;;;;;;;;;;;;;;;;;5046176;28;19913;-69
2022/09/26 13:49:57;;;;;;;;;;;;;;;;;;5067138;28;20026;-71
2022/09/26 13:52:22;;;;;;;;;;;;;;;;;;5059015;28;19954;-70
2022/09/26 13:54:48;;;;;;;;;;;;;;;;;;5069516;28;19952;-70
2022/09/26 13:57:13;;;;;;;;;;;;;;;;;;5065394;28;20276;-69
2022/09/26 13:59:39;;;;;;;;;;;;;;;;;;5042176;28;20346;-69
2022/09/26 14:02:04;;;;;;;;;;;;;;;;;;5055876;28;20377;-70
2022/09/26 14:04:29;;;;;;;;;;;;;;;;;;5056101;28;19977;-70
2022/09/26 14:06:54;;;;;;;;;;;;;;;;;;5062066;28;19999;-69
2022/09/26 14:09:23;;;;;;;;;;;;;;;;;;5068600;28;20295;-70
2022/09/26 14:11:48;;;;;;;;;;;;;;;;;;5069942;28;19931;-70
2022/09/26 14:14:17;;;;;;;;;;;;;;;;;;5068016;28;20015;-70
2022/09/26 14:16:42;;;;;;;;;;;;;;;;;;5070506;28;19913;-69
2022/09/26 14:19:08;;;;;;;;;;;;;;;;;;5075746;28;19921;-69
2022/09/26 14:21:33;;;;;;;;;;;;;;;;;;5066076;28;19944;-71
2022/09/26 14:24:00;;;;;;;;;;;;;;;;;;5083297;28;19918;-70
2022/09/26 14:26:26;;;;;;;;;;;;;;;;;;5084365;28;19923;-70
2022/09/26 14:28:51;;;;;;;;;;;;;;;;;;5086680;28;19912;-70
2022/09/26 14:31:16;;;;;;;;;;;;;;;;;;5090367;28;19922;-68
2022/09/26 14:33:42;;;;;;;;;;;;;;;;;;5084329;28;19912;-69
2022/09/26 14:36:08;;;;;;;;;;;;;;;;;;5075371;28;19959;-69
2022/09/26 14:38:33;;;;;;;;;;;;;;;;;;5077788;28;19968;-70
2022/09/26 14:40:58;;;;;;;;;;;;;;;;;;5072096;28;19913;-69
2022/09/26 14:43:23;;;;;;;;;;;;;;;;;;5062895;28;19957;-70
2022/09/26 14:45:48;;;;;;;;;;;;;;;;;;5087614;28;19912;-70
2022/09/26 14:48:13;;;;;;;;;;;;;;;;;;5084702;28;19918;-71
2022/09/26 14:50:39;;;;;;;;;;;;;;;;;;5074322;28;19916;-71
2022/09/26 14:53:04;;;;;;;;;;;;;;;;;;5088942;28;20038;-70
2022/09/26 14:55:29;;;;;;;;;;;;;;;;;;5078402;28;21420;-71
2022/09/26 14:57:54;;;;;;;;;;;;;;;;;;5066687;28;20010;-71
2022/09/26 15:00:19;;;;;;;;;;;;;;;;;;5091297;28;19912;-71
2022/09/26 15:02:45;;;;;;;;;;;;;;;;;;5091174;28;19922;-71
2022/09/26 15:05:10;;;;;;;;;;;;;;;;;;5066542;28;20140;-70
2022/09/26 15:07:35;;;;;;;;;;;;;;;;;;5082287;28;19912;-70
2022/09/26 15:10:01;;;;;;;;;;;;;;;;;;5074182;28;19916;-70
2022/09/26 15:12:26;;;;;;;;;;;;;;;;;;5073031;28;19918;-70
2022/09/26 15:14:51;;;;;;;;;;;;;;;;;;5081658;28;19912;-69
2022/09/26 15:17:16;;;;;;;;;;;;;;;;;;5078896;28;19990;-70
2022/09/26 15:19:41;;;;;;;;;;;;;;;;;;5087112;28;20019;-69
2022/09/26 15:22:07;;;;;;;;;;;;;;;;;;5072611;28;19939;-70
2022/09/26 15:24:33;;;;;;;;;;;;;;;;;;5084422;28;19977;-70
2022/09/26 15:26:58;;;;;;;;;;;;;;;;;;5088488;28;20287;-71
2022/09/26 15:29:23;;;;;;;;;;;;;;;;;;5073708;28;19919;-70
2022/09/26 15:31:48;;;;;;;;;;;;;;;;;;5069832;28;19987;-69
2022/09/26 15:34:16;;;;;;;;;;;;;;;;;;5070671;28;19916;-69
2022/09/26 15:36:41;;;;;;;;;;;;;;;;;;5080817;28;19999;-69
2022/09/26 15:39:06;;;;;;;;;;;;;;;;;;5071288;28;20065;-70
2022/09/26 15:44:18;;;;;;;;;;;;;;;;;;5090362;28;19935;-69
2022/09/26 15:46:45;;;;;;;;;;;;;;;;;;5082706;28;19909;-69
2022/09/26 15:49:11;;;;;;;;;;;;;;;;;;5061353;28;19917;-70
2022/09/26 15:51:37;;;;;;;;;;;;;;;;;;5061854;28;20032;-70
2022/09/26 15:54:03;;;;;;;;;;;;;;;;;;5069333;28;19965;-70
2022/09/26 15:56:28;;;;;;;;;;;;;;;;;;5074843;28;19916;-69
2022/09/26 15:58:53;;;;;;;;;;;;;;;;;;5078832;28;20324;-70
2022/09/26 16:01:18;;;;;;;;;;;;;;;;;;5076771;28;19915;-70
2022/09/26 16:03:44;;;;;;;;;;;;;;;;;;5084081;28;19913;-70
2022/09/26 16:06:09;;;;;;;;;;;;;;;;;;5058810;28;20269;-71
2022/09/26 16:08:35;;;;;;;;;;;;;;;;;;5079453;28;19995;-72
2022/09/26 16:11:00;;;;;;;;;;;;;;;;;;5057914;28;19966;-71
2022/09/26 16:13:26;;;;;;;;;;;;;;;;;;5077755;28;19994;-71
2022/09/26 16:15:51;;;;;;;;;;;;;;;;;;5083524;28;19912;-71
2022/09/26 16:18:16;;;;;;;;;;;;;;;;;;5062649;28;19928;-71
2022/09/26 16:20:41;;;;;;;;;;;;;;;;;;5075125;28;20003;-71
2022/09/26 16:23:08;;;;;;;;;;;;;;;;;;5071781;28;20937;-71
2022/09/26 16:25:33;;;;;;;;;;;;;;;;;;5074899;28;19913;-70
2022/09/26 16:28:01;;;;;;;;;;;;;;;;;;5064561;28;19912;-70
2022/09/26 16:30:26;;;;;;;;;;;;;;;;;;5071032;28;19947;-70
2022/09/26 16:32:52;;;;;;;;;;;;;;;;;;5074801;28;19962;-71
2022/09/26 16:35:18;;;;;;;;;;;;;;;;;;5080290;28;19962;-71
2022/09/26 16:37:43;;;;;;;;;;;;;;;;;;5076757;28;19965;-68
2022/09/26 16:40:09;;;;;;;;;;;;;;;;;;5073932;28;20357;-68
2022/09/26 16:42:34;;;;;;;;;;;;;;;;;;5076168;28;19919;-68
2022/09/26 16:45:00;;;;;;;;;;;;;;;;;;5087753;28;19916;-68
2022/09/26 16:47:25;;;;;;;;;;;;;;;;;;5086443;28;20379;-66
2022/09/26 16:49:50;;;;;;;;;;;;;;;;;;5074296;28;19919;-68
2022/09/26 16:52:15;;;;;;;;;;;;;;;;;;5095197;28;20364;-68
2022/09/26 16:54:40;;;;;;;;;;;;;;;;;;5075671;28;19908;-68